RPB7612 SKRG-SKSM
Flight info
| Callsign | RPB7612 |
|---|---|
| Flight time | N/A |
| Altitude | 34000 |
| Route | BIVI1B BIVIG UW3 MGN DARNI DARN1C |
| Aircraft | B738/M-SDE3FGHIRWY/S |
Departure
| Time | 2026-05-09 18:22 |
|---|---|
| Airport | Jose Maria Córdova International Airport (SKRG) |
Arrival
| Time | N/A |
|---|---|
| Airport | Simón Bolívar International Airport (SKSM) |
| Time | Latitude | Longitude | Altitude | Speed | Heading |
|---|---|---|---|---|---|
| 2026-05-09 17:50 | 6.16940 | -75.42909 | 7015 ft | 0 kts | 347° |
| 2026-05-09 18:10 | 6.16907 | -75.42906 | 7015 ft | 4 kts | 12° |
| 2026-05-09 18:10 | 6.16883 | -75.42916 | 7015 ft | 4 kts | 47° |
| 2026-05-09 18:11 | 6.16870 | -75.42938 | 7015 ft | 4 kts | 77° |
| 2026-05-09 18:11 | 6.16867 | -75.42965 | 7018 ft | 4 kts | 90° |
| 2026-05-09 18:11 | 6.16867 | -75.42992 | 7015 ft | 4 kts | 87° |
| 2026-05-09 18:11 | 6.16866 | -75.43005 | 7015 ft | 0 kts | 76° |
| 2026-05-09 18:15 | 6.16867 | -75.43003 | 7015 ft | 2 kts | 76° |
| 2026-05-09 18:15 | 6.16876 | -75.42968 | 7015 ft | 7 kts | 76° |
| 2026-05-09 18:15 | 6.16888 | -75.42915 | 7015 ft | 8 kts | 76° |
| 2026-05-09 18:15 | 6.16901 | -75.42863 | 7018 ft | 7 kts | 76° |
| 2026-05-09 18:16 | 6.16913 | -75.42813 | 7015 ft | 7 kts | 76° |
| 2026-05-09 18:16 | 6.16931 | -75.42767 | 7017 ft | 7 kts | 65° |
| 2026-05-09 18:16 | 6.16955 | -75.42725 | 7017 ft | 7 kts | 52° |
| 2026-05-09 18:16 | 6.17004 | -75.42678 | 7017 ft | 9 kts | 38° |
| 2026-05-09 18:17 | 6.17045 | -75.42607 | 7015 ft | 15 kts | 98° |
| 2026-05-09 18:17 | 6.16950 | -75.42534 | 7016 ft | 21 kts | 150° |
| 2026-05-09 18:17 | 6.16792 | -75.42485 | 7013 ft | 28 kts | 180° |
| 2026-05-09 18:17 | 6.16570 | -75.42484 | 7004 ft | 35 kts | 179° |
| 2026-05-09 18:18 | 6.16319 | -75.42482 | 6985 ft | 37 kts | 180° |
| 2026-05-09 18:18 | 6.16115 | -75.42481 | 6982 ft | 27 kts | 179° |
| 2026-05-09 18:18 | 6.15934 | -75.42480 | 6984 ft | 25 kts | 179° |
| 2026-05-09 18:18 | 6.15766 | -75.42478 | 6981 ft | 23 kts | 180° |
| 2026-05-09 18:19 | 6.15607 | -75.42477 | 6980 ft | 23 kts | 179° |
| 2026-05-09 18:19 | 6.15269 | -75.42475 | 6978 ft | 26 kts | 179° |
| 2026-05-09 18:19 | 6.15087 | -75.42474 | 6977 ft | 27 kts | 180° |
| 2026-05-09 18:20 | 6.14910 | -75.42483 | 6976 ft | 20 kts | 197° |
| 2026-05-09 18:20 | 6.14830 | -75.42442 | 6976 ft | 14 kts | 92° |
| 2026-05-09 18:20 | 6.14878 | -75.42363 | 6976 ft | 16 kts | 30° |
| 2026-05-09 18:20 | 6.14999 | -75.42305 | 6974 ft | 22 kts | 7° |
| 2026-05-09 18:21 | 6.15366 | -75.42306 | 6980 ft | 87 kts | 360° |
| 2026-05-09 18:21 | 6.16193 | -75.42312 | 6984 ft | 149 kts | 359° |
| 2026-05-09 18:21 | 6.17404 | -75.42317 | 7024 ft | 198 kts | 359° |
| 2026-05-09 18:21 | 6.18844 | -75.42348 | 7543 ft | 206 kts | 0° |
| 2026-05-09 18:22 | 6.20332 | -75.42354 | 8154 ft | 219 kts | 3° |
| 2026-05-09 18:22 | 6.21847 | -75.42012 | 8465 ft | 236 kts | 32° |
| 2026-05-09 18:22 | 6.22973 | -75.40772 | 8682 ft | 253 kts | 68° |
| 2026-05-09 18:22 | 6.23136 | -75.38995 | 9040 ft | 265 kts | 103° |
| 2026-05-09 18:23 | 6.22807 | -75.37164 | 9615 ft | 271 kts | 87° |
| 2026-05-09 18:23 | 6.23397 | -75.35315 | 9991 ft | 291 kts | 63° |
| 2026-05-09 18:23 | 6.24401 | -75.33476 | 10306 ft | 313 kts | 63° |
| 2026-05-09 18:23 | 6.25470 | -75.31487 | 10602 ft | 330 kts | 63° |
| 2026-05-09 18:24 | 6.26540 | -75.29492 | 11761 ft | 316 kts | 63° |
| 2026-05-09 18:24 | 6.27562 | -75.27592 | 12967 ft | 305 kts | 64° |
| 2026-05-09 18:24 | 6.28745 | -75.25811 | 13687 ft | 313 kts | 46° |
| 2026-05-09 18:25 | 6.32793 | -75.24246 | 15074 ft | 325 kts | 2° |
| 2026-05-09 18:25 | 6.35066 | -75.24239 | 15789 ft | 329 kts | 359° |
| 2026-05-09 18:25 | 6.37362 | -75.24289 | 16508 ft | 332 kts | 359° |
| 2026-05-09 18:25 | 6.39674 | -75.24328 | 17215 ft | 334 kts | 359° |
| 2026-05-09 18:26 | 6.42051 | -75.24346 | 17440 ft | 352 kts | 359° |
| 2026-05-09 18:26 | 6.44566 | -75.24351 | 17577 ft | 371 kts | 360° |
| 2026-05-09 18:26 | 6.47202 | -75.24309 | 17770 ft | 386 kts | 2° |
| 2026-05-09 18:26 | 6.49902 | -75.24120 | 18230 ft | 391 kts | 5° |
| 2026-05-09 18:27 | 6.52624 | -75.23867 | 18783 ft | 394 kts | 5° |
| 2026-05-09 18:27 | 6.54434 | -75.23690 | 19134 ft | 396 kts | 5° |
| 2026-05-09 18:27 | 6.58121 | -75.23333 | 19859 ft | 399 kts | 5° |
| 2026-05-09 18:27 | 6.60900 | -75.23074 | 20368 ft | 402 kts | 5° |
| 2026-05-09 18:28 | 6.63695 | -75.22823 | 20863 ft | 406 kts | 4° |
| 2026-05-09 18:28 | 6.66516 | -75.22576 | 21324 ft | 409 kts | 4° |
| 2026-05-09 18:28 | 6.69363 | -75.22328 | 21766 ft | 412 kts | 4° |
| 2026-05-09 18:28 | 6.72233 | -75.22080 | 22183 ft | 415 kts | 4° |
| 2026-05-09 18:29 | 6.75123 | -75.21831 | 22603 ft | 419 kts | 4° |
| 2026-05-09 18:29 | 6.78035 | -75.21579 | 23009 ft | 421 kts | 4° |
| 2026-05-09 18:29 | 6.80964 | -75.21326 | 23409 ft | 424 kts | 4° |
| 2026-05-09 18:29 | 6.83919 | -75.21071 | 23819 ft | 427 kts | 4° |
| 2026-05-09 18:30 | 6.86887 | -75.20814 | 24190 ft | 429 kts | 4° |
| 2026-05-09 18:30 | 6.89871 | -75.20556 | 24552 ft | 432 kts | 4° |
| 2026-05-09 18:30 | 6.92861 | -75.20298 | 24925 ft | 434 kts | 4° |
| 2026-05-09 18:30 | 6.95890 | -75.20035 | 25306 ft | 436 kts | 4° |
| 2026-05-09 18:31 | 6.98914 | -75.19774 | 25691 ft | 437 kts | 4° |
| 2026-05-09 18:31 | 7.01953 | -75.19511 | 26041 ft | 439 kts | 5° |
| 2026-05-09 18:31 | 7.04992 | -75.19158 | 26392 ft | 441 kts | 7° |
| 2026-05-09 18:31 | 7.08032 | -75.18709 | 26734 ft | 443 kts | 9° |
| 2026-05-09 18:32 | 7.11085 | -75.18219 | 27054 ft | 445 kts | 9° |
| 2026-05-09 18:32 | 7.14146 | -75.17723 | 27359 ft | 447 kts | 9° |
| 2026-05-09 18:32 | 7.17226 | -75.17231 | 27691 ft | 449 kts | 9° |
| 2026-05-09 18:32 | 7.20320 | -75.16747 | 28035 ft | 450 kts | 9° |
| 2026-05-09 18:33 | 7.23418 | -75.16271 | 28335 ft | 451 kts | 9° |
| 2026-05-09 18:33 | 7.26528 | -75.15797 | 28632 ft | 453 kts | 9° |
| 2026-05-09 18:33 | 7.29652 | -75.15324 | 28924 ft | 455 kts | 9° |
| 2026-05-09 18:33 | 7.32789 | -75.14850 | 29216 ft | 456 kts | 9° |
| 2026-05-09 18:34 | 7.35926 | -75.14375 | 29503 ft | 457 kts | 9° |
| 2026-05-09 18:34 | 7.39081 | -75.13898 | 29769 ft | 459 kts | 9° |
| 2026-05-09 18:34 | 7.42247 | -75.13419 | 30028 ft | 461 kts | 9° |
| 2026-05-09 18:34 | 7.45421 | -75.12938 | 30291 ft | 462 kts | 9° |
| 2026-05-09 18:35 | 7.48607 | -75.12455 | 30589 ft | 462 kts | 9° |
| 2026-05-09 18:35 | 7.51785 | -75.11973 | 30957 ft | 461 kts | 9° |
| 2026-05-09 18:35 | 7.54952 | -75.11492 | 31347 ft | 460 kts | 9° |
| 2026-05-09 18:35 | 7.58112 | -75.11013 | 31721 ft | 458 kts | 9° |
| 2026-05-09 18:36 | 7.61262 | -75.10535 | 32056 ft | 458 kts | 9° |
| 2026-05-09 18:36 | 7.64412 | -75.10056 | 32381 ft | 457 kts | 9° |
| 2026-05-09 18:36 | 7.67554 | -75.09580 | 32706 ft | 457 kts | 9° |
| 2026-05-09 18:36 | 7.70691 | -75.09104 | 33072 ft | 455 kts | 9° |
| 2026-05-09 18:37 | 7.73818 | -75.08628 | 33437 ft | 454 kts | 9° |
| 2026-05-09 18:37 | 7.76940 | -75.08148 | 33741 ft | 454 kts | 8° |
| 2026-05-09 18:37 | 7.80058 | -75.07667 | 34048 ft | 453 kts | 8° |
| 2026-05-09 18:37 | 7.83165 | -75.07188 | 34370 ft | 452 kts | 8° |
| 2026-05-09 18:38 | 7.86273 | -75.06709 | 34671 ft | 451 kts | 8° |
| 2026-05-09 18:38 | 7.89373 | -75.06232 | 34948 ft | 451 kts | 8° |
| 2026-05-09 18:38 | 7.92476 | -75.05754 | 35223 ft | 450 kts | 8° |
| 2026-05-09 18:40 | 8.14162 | -75.02412 | 35770 ft | 445 kts | 8° |
| 2026-05-09 18:40 | 8.17224 | -75.01940 | 35778 ft | 445 kts | 8° |
| 2026-05-09 18:41 | 8.23343 | -75.00996 | 35781 ft | 445 kts | 8° |
| 2026-05-09 18:41 | 8.29456 | -75.00053 | 35777 ft | 444 kts | 8° |
| 2026-05-09 18:42 | 8.35569 | -74.99110 | 35774 ft | 444 kts | 8° |
| 2026-05-09 18:42 | 8.41684 | -74.98166 | 35779 ft | 444 kts | 8° |
| 2026-05-09 18:43 | 8.47797 | -74.97221 | 35777 ft | 445 kts | 8° |
| 2026-05-09 18:43 | 8.53915 | -74.96277 | 35780 ft | 445 kts | 8° |
| 2026-05-09 18:44 | 8.60039 | -74.95332 | 35782 ft | 446 kts | 8° |
| 2026-05-09 18:44 | 8.66175 | -74.94383 | 35769 ft | 446 kts | 8° |
| 2026-05-09 18:45 | 8.72313 | -74.93434 | 35783 ft | 447 kts | 8° |
| 2026-05-09 18:45 | 8.78465 | -74.92481 | 35773 ft | 447 kts | 8° |
| 2026-05-09 18:46 | 8.84618 | -74.91529 | 35718 ft | 449 kts | 8° |
| 2026-05-09 18:46 | 8.87716 | -74.91050 | 35341 ft | 449 kts | 9° |
| 2026-05-09 18:46 | 8.90779 | -74.90575 | 34944 ft | 443 kts | 8° |
| 2026-05-09 18:46 | 8.93817 | -74.90104 | 34524 ft | 439 kts | 9° |
| 2026-05-09 18:47 | 8.96824 | -74.89641 | 34104 ft | 436 kts | 9° |
| 2026-05-09 18:47 | 8.99812 | -74.89178 | 33679 ft | 432 kts | 9° |
| 2026-05-09 18:47 | 9.02776 | -74.88719 | 33251 ft | 429 kts | 9° |
| 2026-05-09 18:47 | 9.05718 | -74.88263 | 32837 ft | 426 kts | 9° |
| 2026-05-09 18:48 | 9.08640 | -74.87810 | 32417 ft | 423 kts | 9° |
| 2026-05-09 18:48 | 9.11538 | -74.87361 | 31998 ft | 421 kts | 9° |
| 2026-05-09 18:48 | 9.14420 | -74.86913 | 31584 ft | 418 kts | 9° |
| 2026-05-09 18:48 | 9.17289 | -74.86468 | 31175 ft | 415 kts | 9° |
| 2026-05-09 18:49 | 9.20138 | -74.86026 | 30766 ft | 413 kts | 9° |
| 2026-05-09 18:49 | 9.22934 | -74.85593 | 30363 ft | 411 kts | 9° |
| 2026-05-09 18:49 | 9.25783 | -74.85151 | 29953 ft | 408 kts | 9° |
| 2026-05-09 18:49 | 9.28542 | -74.84690 | 29545 ft | 405 kts | 13° |
| 2026-05-09 18:50 | 9.31277 | -74.83880 | 29025 ft | 405 kts | 20° |
| 2026-05-09 18:50 | 9.33920 | -74.82926 | 28605 ft | 402 kts | 21° |
| 2026-05-09 18:50 | 9.36507 | -74.81958 | 28177 ft | 400 kts | 21° |
| 2026-05-09 18:50 | 9.39144 | -74.80969 | 27735 ft | 398 kts | 21° |
| 2026-05-09 18:51 | 9.41734 | -74.80005 | 27331 ft | 395 kts | 21° |
| 2026-05-09 18:51 | 9.44273 | -74.79068 | 26922 ft | 393 kts | 21° |
| 2026-05-09 18:51 | 9.46836 | -74.78128 | 26512 ft | 390 kts | 21° |
| 2026-05-09 18:51 | 9.49376 | -74.77202 | 26111 ft | 387 kts | 21° |
| 2026-05-09 18:52 | 9.51900 | -74.76282 | 25708 ft | 385 kts | 21° |
| 2026-05-09 18:52 | 9.54445 | -74.75356 | 25303 ft | 382 kts | 21° |
| 2026-05-09 18:52 | 9.56909 | -74.74460 | 24912 ft | 381 kts | 21° |
| 2026-05-09 18:52 | 9.59401 | -74.73554 | 24518 ft | 379 kts | 21° |
| 2026-05-09 18:53 | 9.61876 | -74.72655 | 24109 ft | 377 kts | 21° |
| 2026-05-09 18:53 | 9.64336 | -74.71761 | 23728 ft | 375 kts | 21° |
| 2026-05-09 18:53 | 9.66787 | -74.70869 | 23326 ft | 373 kts | 21° |
| 2026-05-09 18:53 | 9.69221 | -74.69984 | 22935 ft | 371 kts | 21° |
| 2026-05-09 18:54 | 9.71642 | -74.69103 | 22550 ft | 369 kts | 21° |
| 2026-05-09 18:54 | 9.73269 | -74.68511 | 22293 ft | 367 kts | 21° |
| 2026-05-09 18:54 | 9.75669 | -74.67638 | 21907 ft | 365 kts | 21° |
| 2026-05-09 18:54 | 9.78055 | -74.66771 | 21528 ft | 364 kts | 21° |
| 2026-05-09 18:55 | 9.80432 | -74.65904 | 21140 ft | 362 kts | 21° |
| 2026-05-09 18:55 | 9.82795 | -74.65044 | 20760 ft | 360 kts | 21° |
| 2026-05-09 18:55 | 9.85150 | -74.64187 | 20376 ft | 359 kts | 21° |
| 2026-05-09 18:55 | 9.87491 | -74.63335 | 19999 ft | 357 kts | 21° |
| 2026-05-09 18:56 | 9.89826 | -74.62483 | 19624 ft | 355 kts | 21° |
| 2026-05-09 18:56 | 9.92139 | -74.61638 | 19274 ft | 352 kts | 20° |
| 2026-05-09 18:56 | 9.94437 | -74.60801 | 18817 ft | 353 kts | 20° |
| 2026-05-09 18:56 | 9.96733 | -74.59964 | 18517 ft | 348 kts | 20° |
| 2026-05-09 18:57 | 9.98999 | -74.59140 | 18218 ft | 344 kts | 20° |
| 2026-05-09 18:57 | 10.01246 | -74.58321 | 17857 ft | 342 kts | 20° |
| 2026-05-09 18:57 | 10.03479 | -74.57507 | 17516 ft | 340 kts | 20° |
| 2026-05-09 18:57 | 10.05702 | -74.56695 | 17157 ft | 339 kts | 20° |
| 2026-05-09 18:58 | 10.12818 | -74.54099 | 16012 ft | 335 kts | 20° |